Mc Clellan-Palomar Airport
KCRQ : now visible

Airfield :











YOU CAN JOIN US ON...

 
LOGIN :

Register | Disclaimer

   EN    FR    IT 

 









Legend :    VFR   Marginal VFR   IFR   Intensive IFR   Very Intensive IFR
Visi :
Ceiling :
>= 8 km
>= 3000ft
5 to 8 km
1000 to 3000 ft
1500m to 5 km
500 to 1000 ft
800 to 1500m
200 to 500 ft
< 800m
< 200 ft
Symbols :   Thunderstorms  Fog  Heavy snow  Heavy precipitations  Wind > 20 kt






- Airport Elevation : 331 ft


KCRQ - Mc Clellan-Palomar

CURRENT METAR :
  • 161153Z AUTO 04004KT 10SM CLR 09/02 A3013 RMK AO2 SLP202 T00890022 10106 20083 50007 $

EXPIRED METARs :
  • 161053Z AUTO 06004KT 10SM CLR 09/03 A3013 RMK AO2 SLP202 T00890028 $
  • 160953Z AUTO 05005KT 10SM CLR 09/03 A3012 RMK AO2 SLP200 T00940028 $

TAF KCRQ
Valid from the 16 at 12:00 until the 17 at 12:00 UTC


161136Z 1612/1712 VRB05KT P6SM SCT250 WS020/06020KT
FM170300 07008G14KT P6SM SCT250



MET'MAP, your aeronautical weather chart ! - Copyright ORBIFLY December 2007 - Disclaimer

ORBIFLY MET'MAP TEAM :

Programming & Development : Alexandra Zaïnal
Concept & original design : Baudouin d'Aumeries
Assistance for programming : Marc-Olivier Méhu
Technical & hardware support : Manuel Goepfert

Contact : metmap@orbifly.com




SOURCES & CREDITS :

   NOAA       Earth
Advisory